createdAt,value
2018-08-28T00:00:26.285Z,2.33
2018-08-28T00:02:54.780Z,2.40
2018-08-28T00:05:23.287Z,2.40
2018-08-28T00:07:51.787Z,4.20
2018-08-28T00:10:20.340Z,3.07
2018-08-28T00:12:48.817Z,3.20
2018-08-28T00:15:17.310Z,3.20
2018-08-28T00:17:45.812Z,3.23
2018-08-28T00:20:14.293Z,2.80
2018-08-28T00:22:42.780Z,3.87
2018-08-28T00:25:11.416Z,2.67
2018-08-28T00:27:39.937Z,3.50
2018-08-28T00:30:08.472Z,3.20
2018-08-28T00:32:37.001Z,2.37
2018-08-28T00:35:05.580Z,2.07
2018-08-28T00:37:34.092Z,2.70
2018-08-28T00:40:02.623Z,2.90
2018-08-28T00:42:31.282Z,2.27
2018-08-28T00:44:59.764Z,2.60
2018-08-28T00:47:28.351Z,3.60
2018-08-28T00:49:56.834Z,2.80
2018-08-28T00:52:25.478Z,3.13
2018-08-28T00:54:53.965Z,2.57
2018-08-28T00:57:22.448Z,1.90
2018-08-28T00:59:50.927Z,3.30
2018-08-28T01:02:19.460Z,3.37
2018-08-28T01:04:47.927Z,2.60
2018-08-28T01:07:16.412Z,1.73
2018-08-28T01:09:44.919Z,2.20
2018-08-28T01:12:13.392Z,2.80
2018-08-28T01:14:41.936Z,1.77
2018-08-28T01:17:10.442Z,2.37
2018-08-28T01:19:38.962Z,2.13
2018-08-28T01:22:07.462Z,2.27
2018-08-28T01:24:36.091Z,1.93
2018-08-28T01:27:04.613Z,1.97
2018-08-28T01:29:33.109Z,1.70
2018-08-28T01:32:01.865Z,2.80
2018-08-28T01:34:30.323Z,2.73
2018-08-28T01:36:58.796Z,1.70
2018-08-28T01:39:27.321Z,2.07
2018-08-28T01:41:55.854Z,1.90
2018-08-28T01:44:24.387Z,1.60
2018-08-28T01:46:52.943Z,2.00
2018-08-28T01:49:21.436Z,2.20
2018-08-28T01:51:49.940Z,2.53
2018-08-28T01:54:18.462Z,2.30
2018-08-28T01:56:46.954Z,2.03
2018-08-28T01:59:15.443Z,1.80
2018-08-28T02:01:43.962Z,1.63
2018-08-28T02:04:12.636Z,2.60
2018-08-28T02:06:41.163Z,2.53
2018-08-28T02:09:09.715Z,2.10
2018-08-28T02:11:38.188Z,2.57
2018-08-28T02:14:06.699Z,2.20
2018-08-28T02:16:35.204Z,2.00
2018-08-28T02:19:03.708Z,1.93
2018-08-28T02:21:32.205Z,2.63
2018-08-28T02:24:00.727Z,2.53
2018-08-28T02:26:29.280Z,2.10
2018-08-28T02:28:57.754Z,2.57
2018-08-28T02:31:26.295Z,2.10
2018-08-28T02:33:54.832Z,2.13
2018-08-28T02:36:23.353Z,2.23
2018-08-28T02:38:51.855Z,2.20
2018-08-28T02:41:20.332Z,2.10
2018-08-28T02:43:48.889Z,2.37
2018-08-28T02:46:17.385Z,3.03
2018-08-28T02:48:45.852Z,2.00
2018-08-28T02:51:14.357Z,1.97
2018-08-28T02:53:42.986Z,3.00
2018-08-28T02:56:11.518Z,2.43
2018-08-28T02:58:39.982Z,2.67
2018-08-28T03:01:08.480Z,1.80
2018-08-28T03:03:36.959Z,2.30
2018-08-28T03:06:05.487Z,2.10
2018-08-28T03:08:33.996Z,2.10
2018-08-28T03:11:02.544Z,3.03
2018-08-28T03:13:31.013Z,2.60
2018-08-28T03:15:59.583Z,2.67
2018-08-28T03:18:28.062Z,2.57
2018-08-28T03:20:56.575Z,2.67
2018-08-28T03:23:25.082Z,2.87
2018-08-28T03:25:53.577Z,3.43
2018-08-28T03:28:22.065Z,2.90
2018-08-28T03:30:50.573Z,3.23
2018-08-28T03:33:19.060Z,3.07
2018-08-28T03:35:47.531Z,2.60
2018-08-28T03:38:16.062Z,3.20
2018-08-28T03:40:44.533Z,2.33
2018-08-28T03:43:13.020Z,2.63
2018-08-28T03:45:41.544Z,2.60
2018-08-28T03:48:10.027Z,3.43
2018-08-28T03:50:38.580Z,2.87
2018-08-28T03:53:07.092Z,2.10
2018-08-28T03:55:35.829Z,2.60
2018-08-28T03:58:04.325Z,2.30
2018-08-28T04:00:32.844Z,2.40
2018-08-28T04:03:01.384Z,2.63
2018-08-28T04:05:29.883Z,2.93
2018-08-28T04:07:58.473Z,2.80
2018-08-28T04:10:27.959Z,2.60
2018-08-28T04:12:56.492Z,4.10
2018-08-28T04:15:25.044Z,2.10
2018-08-28T04:17:53.553Z,2.70
2018-08-28T04:20:22.120Z,2.50
2018-08-28T04:22:50.659Z,2.60
2018-08-28T04:25:20.008Z,2.93
2018-08-28T04:27:48.698Z,2.53
2018-08-28T04:30:17.203Z,2.23
2018-08-28T04:32:45.672Z,2.80
2018-08-28T04:35:14.154Z,2.20
2018-08-28T04:37:42.693Z,2.10
2018-08-28T04:40:11.192Z,2.40
2018-08-28T04:42:39.671Z,2.53
2018-08-28T04:45:08.225Z,1.90
2018-08-28T04:47:36.699Z,2.20
2018-08-28T04:50:05.708Z,2.40
2018-08-28T04:52:34.287Z,1.97
2018-08-28T04:55:02.972Z,3.60
2018-08-28T04:57:31.315Z,2.33
2018-08-28T04:59:59.819Z,2.70
2018-08-28T05:02:34.133Z,3.30
2018-08-28T05:05:03.696Z,2.23
2018-08-28T05:07:32.200Z,1.90
2018-08-28T05:10:00.682Z,3.00
2018-08-28T05:12:29.204Z,2.67
2018-08-28T05:14:57.930Z,3.20
2018-08-28T05:17:26.472Z,2.60
2018-08-28T05:19:55.201Z,3.00
2018-08-28T05:22:24.187Z,2.60
2018-08-28T05:24:52.707Z,2.60
2018-08-28T05:27:21.591Z,3.13
2018-08-28T05:29:50.096Z,4.40
2018-08-28T05:32:18.573Z,2.00
2018-08-28T05:34:47.103Z,2.70
2018-08-28T05:37:15.628Z,3.40
2018-08-28T05:39:44.126Z,2.20
2018-08-28T05:42:12.623Z,2.13
2018-08-28T05:44:41.124Z,2.00
2018-08-28T05:47:09.614Z,2.77
2018-08-28T05:49:38.185Z,2.60
2018-08-28T05:52:06.800Z,2.83
2018-08-28T05:54:35.280Z,2.60
2018-08-28T05:57:03.809Z,4.20
2018-08-28T05:59:32.296Z,2.73
2018-08-28T06:02:01.105Z,2.70
2018-08-28T06:04:29.608Z,3.10
2018-08-28T06:06:58.078Z,3.20
2018-08-28T06:09:26.551Z,2.80
2018-08-28T06:11:55.066Z,2.53
2018-08-28T06:14:23.588Z,2.47
2018-08-28T06:16:52.092Z,2.20
2018-08-28T06:19:20.596Z,2.70
2018-08-28T06:21:49.088Z,1.87
2018-08-28T06:24:17.577Z,3.40
2018-08-28T06:26:46.084Z,2.13
2018-08-28T06:29:14.596Z,2.80
2018-08-28T06:31:43.069Z,2.20
2018-08-28T06:34:11.975Z,2.70
2018-08-28T06:36:40.449Z,2.53
2018-08-28T06:39:09.524Z,2.90
2018-08-28T06:41:38.306Z,1.77
2018-08-28T06:44:07.171Z,2.70
2018-08-28T06:46:35.680Z,3.77
2018-08-28T06:49:04.478Z,2.87
2018-08-28T06:51:33.023Z,2.90
2018-08-28T06:54:01.482Z,4.00
2018-08-28T06:56:30.013Z,3.10
2018-08-28T06:58:58.531Z,2.33
2018-08-28T07:01:27.084Z,2.70
2018-08-28T07:03:55.666Z,3.10
2018-08-28T07:06:24.096Z,3.40
2018-08-28T07:08:52.582Z,2.83
2018-08-28T07:11:21.107Z,2.97
2018-08-28T07:13:49.637Z,2.67
2018-08-28T07:16:18.124Z,3.07
2018-08-28T07:18:46.706Z,3.37
2018-08-28T07:21:15.186Z,3.03
2018-08-28T07:23:43.676Z,2.50
2018-08-28T07:26:12.393Z,3.33
2018-08-28T07:28:40.851Z,2.53
2018-08-28T07:31:09.465Z,2.47
2018-08-28T07:34:41.497Z,2.73
2018-08-28T07:37:10.017Z,3.10
2018-08-28T07:39:38.512Z,2.60
2018-08-28T07:42:07.082Z,2.63
2018-08-28T07:44:35.662Z,2.30
2018-08-28T07:47:04.249Z,2.20
2018-08-28T07:49:32.869Z,2.03
2018-08-28T07:52:01.364Z,2.43
2018-08-28T07:54:29.871Z,2.23
2018-08-28T07:56:58.397Z,2.40
2018-08-28T07:59:26.917Z,2.27
2018-08-28T08:02:01.876Z,2.43
2018-08-28T08:04:30.367Z,2.97
2018-08-28T08:06:58.868Z,2.87
2018-08-28T08:09:27.381Z,2.80
2018-08-28T08:11:55.900Z,2.97
2018-08-28T08:14:24.416Z,2.77
2018-08-28T08:16:52.956Z,2.73
2018-08-28T08:19:21.432Z,2.90
2018-08-28T08:21:49.956Z,3.03
2018-08-28T08:24:18.470Z,2.90
2018-08-28T08:26:46.981Z,3.10
2018-08-28T08:29:15.516Z,2.30
2018-08-28T08:31:44.037Z,2.17
2018-08-28T08:34:12.548Z,3.27
2018-08-28T08:36:41.112Z,3.37
2018-08-28T08:39:10.478Z,2.77
2018-08-28T08:41:39.619Z,2.13
2018-08-28T08:44:08.237Z,2.17
2018-08-28T08:46:36.770Z,2.17
2018-08-28T08:49:05.297Z,2.13
2018-08-28T08:51:33.785Z,2.70
2018-08-28T08:54:02.324Z,2.20
2018-08-28T08:56:30.797Z,2.27
2018-08-28T08:58:59.288Z,2.93
2018-08-28T09:01:27.841Z,2.17
2018-08-28T09:03:56.320Z,1.90
2018-08-28T09:06:24.818Z,2.93
2018-08-28T09:08:53.334Z,2.00
2018-08-28T09:11:21.904Z,2.87
2018-08-28T09:13:50.612Z,2.03
2018-08-28T09:16:19.139Z,2.83
2018-08-28T09:18:47.680Z,2.03
2018-08-28T09:21:16.262Z,2.57
2018-08-28T09:23:44.825Z,3.10
2018-08-28T09:26:13.347Z,2.13
2018-08-28T09:28:41.879Z,2.23
2018-08-28T09:31:10.502Z,2.47
2018-08-28T09:33:39.184Z,2.50
2018-08-28T09:36:07.729Z,3.03
2018-08-28T09:38:36.282Z,2.50
2018-08-28T09:41:04.886Z,1.73
2018-08-28T09:43:33.385Z,2.07
2018-08-28T09:46:01.896Z,2.00
2018-08-28T09:48:30.473Z,2.03
2018-08-28T09:50:59.234Z,2.60
2018-08-28T09:53:27.734Z,2.17
2018-08-28T09:55:56.222Z,3.10
2018-08-28T09:58:24.983Z,1.67
2018-08-28T10:00:58.688Z,2.03
2018-08-28T10:03:27.173Z,2.30
2018-08-28T10:05:55.723Z,2.50
2018-08-28T10:08:24.231Z,4.10
2018-08-28T10:10:52.734Z,2.70
2018-08-28T10:13:21.349Z,2.43
2018-08-28T10:15:49.877Z,2.80
2018-08-28T10:18:18.374Z,2.73
2018-08-28T10:20:46.845Z,2.67
2018-08-28T10:23:15.366Z,2.90
2018-08-28T10:25:43.948Z,2.60
2018-08-28T10:28:12.450Z,2.13
2018-08-28T10:30:40.958Z,1.90
2018-08-28T10:33:09.449Z,2.13
2018-08-28T10:35:38.058Z,2.10
2018-08-28T10:38:06.933Z,2.97
2018-08-28T10:40:35.415Z,3.30
2018-08-28T10:43:03.998Z,3.23
2018-08-28T10:45:32.493Z,2.73
2018-08-28T10:48:00.979Z,2.67
2018-08-28T10:50:29.483Z,2.30
2018-08-28T10:52:58.044Z,2.10
2018-08-28T10:55:26.682Z,2.53
2018-08-28T10:57:55.186Z,2.00
2018-08-28T11:00:23.765Z,2.50
2018-08-28T11:02:52.282Z,1.73
2018-08-28T11:05:20.788Z,2.77
2018-08-28T11:07:49.288Z,3.57
2018-08-28T11:10:17.797Z,2.20
2018-08-28T11:12:46.297Z,2.33
2018-08-28T11:15:14.818Z,2.40
2018-08-28T11:17:43.315Z,1.37
2018-08-28T11:20:11.839Z,1.47
2018-08-28T11:22:40.358Z,1.63
2018-08-28T11:25:09.308Z,1.73
2018-08-28T11:27:37.789Z,1.90
2018-08-28T11:30:06.612Z,1.60
2018-08-28T11:32:35.117Z,1.13
2018-08-28T11:35:03.659Z,1.97
2018-08-28T11:37:32.157Z,1.90
2018-08-28T11:40:00.661Z,1.30
2018-08-28T11:42:29.158Z,1.60
2018-08-28T11:44:57.668Z,1.20
2018-08-28T11:47:26.163Z,1.53
2018-08-28T11:49:54.666Z,2.07
2018-08-28T11:52:23.221Z,1.70
2018-08-28T11:54:51.698Z,1.83
2018-08-28T11:57:20.213Z,1.80
2018-08-28T11:59:48.715Z,2.40
2018-08-28T12:02:17.228Z,2.07
2018-08-28T12:04:45.772Z,1.60
2018-08-28T12:07:14.310Z,1.53
2018-08-28T12:09:42.794Z,1.47
2018-08-28T12:12:11.312Z,1.80
2018-08-28T12:14:39.799Z,2.17
2018-08-28T12:17:08.282Z,2.17
2018-08-28T12:19:36.821Z,1.90
2018-08-28T12:22:05.446Z,1.67
2018-08-28T12:24:33.972Z,1.93
2018-08-28T12:27:02.465Z,1.73
2018-08-28T12:29:31.055Z,2.73
2018-08-28T12:31:59.536Z,1.87
2018-08-28T12:34:28.091Z,2.50
2018-08-28T12:36:56.692Z,2.50
2018-08-28T12:39:25.165Z,2.10
2018-08-28T12:41:53.638Z,2.90
2018-08-28T12:44:22.153Z,2.10
2018-08-28T12:46:50.655Z,2.57
2018-08-28T12:49:19.147Z,1.97
2018-08-28T12:51:47.645Z,2.40
2018-08-28T12:54:16.145Z,2.93
2018-08-28T12:56:44.669Z,1.97
2018-08-28T12:59:13.181Z,2.50
2018-08-28T13:01:41.708Z,2.07
2018-08-28T13:04:10.182Z,1.77
2018-08-28T13:06:38.710Z,1.63
2018-08-28T13:09:07.278Z,2.47
2018-08-28T13:11:35.811Z,2.30
2018-08-28T13:14:04.338Z,2.33
2018-08-28T13:16:32.940Z,2.27
2018-08-28T13:19:01.429Z,2.77
2018-08-28T13:21:29.953Z,2.50
2018-08-28T13:23:58.449Z,2.47
2018-08-28T13:26:27.090Z,1.93
2018-08-28T13:28:55.628Z,2.37
2018-08-28T13:31:24.166Z,2.40
2018-08-28T13:33:52.645Z,1.67
2018-08-28T13:36:21.172Z,3.10
2018-08-28T13:38:49.656Z,2.17
2018-08-28T13:41:18.228Z,2.90
2018-08-28T13:43:46.758Z,1.83
2018-08-28T13:46:15.261Z,1.77
2018-08-28T13:48:43.791Z,3.07
2018-08-28T13:51:12.369Z,2.70
2018-08-28T13:53:40.933Z,2.97
2018-08-28T13:56:09.391Z,2.97
2018-08-28T13:58:37.895Z,3.13
2018-08-28T14:01:06.548Z,3.00
2018-08-28T14:03:35.043Z,3.00
2018-08-28T14:06:03.610Z,2.40
2018-08-28T14:08:32.089Z,2.30
2018-08-28T14:11:00.567Z,2.10
2018-08-28T14:13:29.129Z,2.20
2018-08-28T14:15:57.632Z,2.57
2018-08-28T14:18:26.157Z,2.63
2018-08-28T14:20:54.703Z,1.70
2018-08-28T14:23:23.257Z,2.70
2018-08-28T14:25:52.424Z,1.90
2018-08-28T14:28:20.928Z,2.93
2018-08-28T14:30:49.463Z,1.80
2018-08-28T14:33:17.951Z,1.60
2018-08-28T14:35:46.596Z,2.60
2018-08-28T14:38:14.989Z,2.93
2018-08-28T14:40:43.461Z,2.50
2018-08-28T14:43:11.988Z,3.27
2018-08-28T14:45:40.513Z,3.47
2018-08-28T14:48:09.021Z,2.60
2018-08-28T14:50:37.551Z,3.00
2018-08-28T14:53:06.255Z,3.20
2018-08-28T14:55:34.791Z,3.07
2018-08-28T14:58:03.351Z,2.80
2018-08-28T15:00:31.830Z,3.90
2018-08-28T15:03:00.326Z,4.30
2018-08-28T15:05:28.848Z,3.10
2018-08-28T15:07:57.367Z,2.90
2018-08-28T15:10:25.903Z,3.20
2018-08-28T15:12:54.437Z,3.47
2018-08-28T15:15:22.972Z,3.20
2018-08-28T15:17:51.527Z,3.47
2018-08-28T15:20:20.045Z,2.80
2018-08-28T15:22:48.540Z,2.93
2018-08-28T15:25:17.025Z,3.40
2018-08-28T15:27:45.629Z,3.30
2018-08-28T15:30:14.113Z,2.70
2018-08-28T15:32:42.715Z,2.43
2018-08-28T21:24:09.171Z,26.82
2018-08-28T21:26:37.685Z,29.18
2018-08-28T21:29:06.369Z,30.50
2018-08-28T21:31:34.800Z,26.50
2018-08-28T21:34:03.316Z,30.55
2018-08-28T21:36:32.009Z,25.70
2018-08-28T21:39:00.621Z,26.10
2018-08-28T21:41:29.321Z,23.10
2018-08-28T21:43:57.818Z,23.67
2018-08-28T21:46:26.359Z,23.80
2018-08-28T21:48:54.896Z,25.95
2018-08-28T21:51:23.399Z,22.37
2018-08-28T21:53:51.915Z,25.23
2018-08-28T21:56:20.430Z,24.23
2018-08-28T21:58:49.000Z,26.07
2018-08-28T22:01:17.608Z,25.00
2018-08-28T22:03:46.131Z,26.37
2018-08-28T22:06:19.990Z,28.25
2018-08-28T22:08:48.549Z,29.02
2018-08-28T22:11:17.073Z,30.73
2018-08-28T22:13:45.603Z,27.20
2018-08-28T22:16:14.115Z,30.50
2018-08-28T22:18:42.744Z,30.10
2018-08-28T22:21:11.290Z,26.90
2018-08-28T22:23:39.892Z,26.45
2018-08-28T22:26:08.410Z,28.95
2018-08-28T22:28:36.967Z,25.23
2018-08-28T22:31:05.520Z,24.35
2018-08-28T22:33:34.050Z,22.48
2018-08-28T22:36:02.604Z,23.42
2018-08-28T22:38:31.116Z,21.25
2018-08-28T22:40:59.649Z,22.52
2018-08-28T22:43:28.189Z,23.85
2018-08-28T22:45:56.718Z,23.80
2018-08-28T22:48:25.243Z,22.30
2018-08-28T22:50:53.797Z,28.23
2018-08-28T22:53:22.899Z,30.55
2018-08-28T22:55:51.386Z,32.85
2018-08-28T22:58:19.931Z,27.48
2018-08-28T23:00:48.418Z,28.95
2018-08-28T23:03:16.907Z,30.27
2018-08-28T23:05:45.451Z,30.97
2018-08-28T23:08:13.959Z,33.67
2018-08-28T23:10:42.456Z,36.23
2018-08-28T23:13:11.219Z,37.38
2018-08-28T23:15:39.712Z,35.45
2018-08-28T23:18:08.204Z,41.45
2018-08-28T23:20:36.746Z,43.55
2018-08-28T23:23:05.405Z,43.95
2018-08-28T23:25:33.907Z,44.67
2018-08-28T23:28:02.423Z,43.08
2018-08-28T23:30:30.914Z,38.83
2018-08-28T23:32:59.402Z,43.55
2018-08-28T23:35:27.933Z,47.65
2018-08-28T23:37:56.543Z,49.18
2018-08-28T23:40:25.055Z,50.40
2018-08-28T23:42:53.653Z,61.28
2018-08-28T23:45:22.174Z,60.43
2018-08-28T23:47:50.670Z,64.97
2018-08-28T23:50:19.192Z,78.45
2018-08-28T23:52:47.709Z,94.28
2018-08-28T23:55:16.213Z,99.17
2018-08-28T23:57:44.743Z,118.60
